Terminal Aerodrome Forecast
Issued by NWS Mobile, AL

Home | Current Version | Previous Version | Text Only | Print | Product List | Glossary On
Versions: 1 2 3 4 5 6 7 8 9 10 11 12 13 14 15 16 17 18 19 20 21 22 23 24 25 26 27 28 29 30 31 32 33 34 35 36 37 38
264
FTUS44 KMOB 051735
TAFPNS
TAF
KPNS 051735Z 0518/0618 05004KT P6SM -RA BKN006 OVC012
      TEMPO 0518/0520 3SM SHRA SCT006 BKN012
     FM052000 11007KT 2SM SHRA BR OVC015
      TEMPO 0520/0524 1SM TSRA BKN009CB
     FM060000 13007KT 2SM TSRA BR BKN005 OVC009CB
     FM060900 22012KT 4SM -TSRA BR BKN009 OVC020CB
     FM061200 27013KT P6SM SCT010 OVC020=

USA.gov is the U.S. government's official web portal to all federal, state and local government web resources and services.